• Join FlightAware (Why Join?)
  • Login
  • US Flag 
01:14PM EDT


 

Airport Tracker/Info


-or-


 

Live Flight TrackerFlight Track Log ✈ SKW5649 ✈ 03-May-2013 ✈ KBIS - KDEN

Flight Track Log - Related Links

Times and Time Zones

All times are in EDT time to prevent confusion due to time zone crossing. See the SKW5649 flight status page for this flight to view local times or setup timezone preferences in your user account.

Time Position Orientation Groundspeed Altitude Reporting Facility
EDT Latitude Longitude Course Direction KTS MPH feet Rate Location/Type
06:45PM 46.6364 -100.7047 202° Southwest 249 287 7,200  Level Minneapolis Center
06:46PM 46.5544 -100.7217 188° South 288 331 10,000 2,640 Climbing Minneapolis Center
06:47PM 46.2153 -101.0507 199° South  Level FlightAware Approximate
06:47PM 46.4503 -100.7747 199° South 312 359 13,300  Level Minneapolis Center
06:48PM 46.1032 -101.1081 203° Southwest  Level FlightAware Approximate
06:48PM 46.3731 -100.8481 213° Southwest 327 376 15,800  Level Minneapolis Center
06:49PM 46.0020 -101.1689 203° Southwest  Level FlightAware Approximate
06:49PM 46.2939 -100.9228 213° Southwest 335 386 17,900  Level Minneapolis Center
06:50PM 45.9006 -101.2289 202° Southwest  Level FlightAware Approximate
06:50PM 46.2094 -100.9981 212° Southwest 350 403 19,500  Level Minneapolis Center
06:51PM 46.1153 -101.0614 205° Southwest 367 422 21,200 1,620 Climbing Minneapolis Center
06:52PM 45.9978 -101.1294 202° Southwest 378 435 23,200 1,740 Climbing Minneapolis Center
06:53PM 45.8781 -101.2011 203° Southwest 386 444 24,900 1,440 Climbing Minneapolis Center
06:54PM 45.7775 -101.2617 203° Southwest 389 448 26,200 1,140 Climbing Minneapolis Center
06:56PM 45.6747 -101.3211 202° Southwest 395 455 27,300 960 Climbing Minneapolis Center
06:57PM 45.5711 -101.3819 202° Southwest 401 461 28,300 840 Climbing Minneapolis Center
06:58PM 45.4650 -101.4444 202° Southwest 407 468 29,100 780 Climbing Minneapolis Center
06:59PM 45.3583 -101.5078 203° Southwest 413 475 30,000 420 Climbing Minneapolis Center
07:00PM 45.2286 -101.5828 202° Southwest 418 481 30,000  Level Minneapolis Center
07:01PM 45.1175 -101.6478 202° Southwest 427 491 30,000  Level Minneapolis Center
07:02PM 45.0086 -101.7100 202° Southwest 426 490 30,000  Level Minneapolis Center
07:03PM 44.8997 -101.7728 202° Southwest 424 488 30,000  Level Minneapolis Center
07:04PM 44.7911 -101.8342 202° Southwest 423 487 30,000  Level Minneapolis Center
07:05PM 44.6608 -101.9086 202° Southwest 422 486 30,000  Level Minneapolis Center
07:06PM 44.5531 -101.9703 202° Southwest 420 483 30,000  Level Minneapolis Center
07:07PM 44.4456 -102.0314 202° Southwest 420 483 30,000  Level Minneapolis Center
07:08PM 44.3403 -102.0947 203° Southwest 416 479 30,000  Level Denver Center
07:09PM 44.2347 -102.1578 203° Southwest 414 476 30,000  Level Denver Center
07:10PM 44.1064 -102.2308 202° Southwest 415 478 30,000  Level Denver Center
07:11PM 44.0019 -102.2931 203° Southwest 412 474 30,000  Level Denver Center
07:12PM 43.8964 -102.3533 202° Southwest 411 473 30,000  Level Denver Center
07:13PM 43.7869 -102.4194 204° Southwest 406 467 30,000  Level Denver Center
07:14PM 43.6858 -102.4772 202° Southwest 410 472 30,000  Level Denver Center
07:15PM 43.5683 -102.5436 202° Southwest 410 472 30,000  Level Denver Center
07:16PM 43.4683 -102.6031 203° Southwest 410 472 30,000  Level Denver Center
07:17PM 43.3508 -102.6689 202° Southwest 408 470 30,000  Level Denver Center
07:18PM 43.2503 -102.7261 203° Southwest 409 471 30,000  Level Denver Center
07:19PM 43.1333 -102.7942 203° Southwest 409 471 30,000  Level Denver Center
07:20PM 43.0308 -102.8500 202° Southwest 413 475 30,000  Level Denver Center
07:21PM 42.9147 -102.9167 203° Southwest 407 468 30,000  Level Denver Center
07:23PM 42.7956 -102.9836 202° Southwest 411 473 30,000  Level Denver Center
07:24PM 42.6778 -103.0489 202° Southwest 409 471 30,000  Level Denver Center
07:25PM 42.5764 -103.1056 202° Southwest 409 471 30,000  Level Denver Center
07:26PM 42.4578 -103.1719 202° Southwest 412 474 30,000  Level Denver Center
07:27PM 42.3561 -103.2286 202° Southwest 412 474 30,000  Level Denver Center
07:28PM 42.2542 -103.2847 202° Southwest 411 473 30,000  Level Denver Center
07:29PM 42.1356 -103.3489 202° Southwest 411 473 30,000  Level Denver Center
07:30PM 42.0339 -103.4044 202° Southwest 410 472 30,000  Level Denver Center
07:31PM 41.9147 -103.4697 202° Southwest 412 474 30,000  Level Denver Center
07:32PM 41.8022 -103.4844 186° South 423 487 30,000  Level Denver Center
07:33PM 41.6708 -103.4881 181° South 422 486 30,000  Level Denver Center
07:34PM 41.5581 -103.4903 181° South 423 487 30,000  Level Denver Center
07:35PM 41.4250 -103.4942 181° South 427 491 30,000  Level Denver Center
07:36PM 41.3125 -103.4975 181° South 423 487 30,000  Level Denver Center
07:37PM 41.1792 -103.5019 181° South 429 494 30,000  Level Denver Center
07:38PM 41.0653 -103.5042 181° South 428 493 30,000  Level Denver Center
07:39PM 40.9253 -103.5136 183° South 457 526 30,000 -420 Level Denver Center
07:40PM 40.8025 -103.5694 199° South 466 536 29,200 -1,020 Descending Denver Center
07:41PM 40.6819 -103.6306 201° Southwest 462 532 28,000 -1,260 Descending Denver Center
07:42PM 40.5761 -103.7061 208° Southwest 431 496 26,700 -1,560 Descending Denver Center
07:43PM 40.4975 -103.8142 226° Southwest 405 466 24,800 -1,800 Descending Denver Center
07:44PM 40.4122 -103.9311 226° Southwest 402 463 23,000 -1,500 Descending Denver Center
07:45PM 40.3406 -104.0228 224° Southwest 358 412 21,800 -1,320 Descending Denver Center
07:46PM 40.2672 -104.1014 219° Southwest 341 392 20,300 -1,860 Descending Denver Center
07:47PM 40.1875 -104.1872 219° Southwest 343 395 18,000 -1,920 Descending Denver Center
07:48PM 40.1178 -104.2647 220° Southwest 329 379 16,400 -1,740 Descending Denver Center
07:50PM 40.0556 -104.3511 227° Southwest 293 337 14,500 -1,800 Descending Denver Center
07:50PM 40.0333 -104.3833 228° Southwest 297 342 13,900 -1,200 Descending Denver TRACON
07:51PM 39.9833 -104.4667 232° Southwest 292 336 12,900 -1,200 Descending Denver TRACON
07:52PM 39.9500 -104.5667 247° West 291 335 11,500 -1,140 Descending Denver TRACON
07:53PM 39.9553 -104.6311 276° West 281 323 11,000 -240 Descending Denver Center
07:54PM 39.9567 -104.7256 271° West 247 284 11,100 -240 Climbing Denver Center
07:55PM 39.9575 -104.8133 271° West 245 282 10,600 -840 Descending Denver Center
07:56PM 39.9522 -104.9044 266° West 241 277 9,400 -1,260 Descending Denver Center
07:57PM 39.8889 -104.9228 193° South 240 276 8,000 -1,080 Descending Denver Center
07:58PM 39.8450 -104.8811 144° Southeast 194 223 7,200 -600 Descending Denver Center
07:59PM 39.8411 -104.8178 95° East 175 201 6,800 -420 Descending Denver Center